createdAt,value
2024-01-28T00:00:00.505Z,2.97
2024-01-28T00:02:35.409Z,2.94
2024-01-28T00:05:06.733Z,2.93
2024-01-28T00:07:45.032Z,2.91
2024-01-28T00:10:14.116Z,2.91
2024-01-28T00:12:45.142Z,2.94
2024-01-28T00:15:17.180Z,2.96
2024-01-28T00:17:54.869Z,2.97
2024-01-28T00:20:26.049Z,2.97
2024-01-28T00:22:56.441Z,2.92
2024-01-28T00:25:28.613Z,2.88
2024-01-28T00:28:17.323Z,2.88
2024-01-28T00:30:50.609Z,2.93
2024-01-28T00:33:27.354Z,2.92
2024-01-28T00:35:59.674Z,2.92
2024-01-28T00:38:33.667Z,2.94
2024-01-28T00:41:03.150Z,2.93
2024-01-28T00:43:32.543Z,2.92
2024-01-28T00:46:01.875Z,2.92
2024-01-28T00:48:34.052Z,2.89
2024-01-28T00:51:03.970Z,2.89
2024-01-28T00:53:43.431Z,2.92
2024-01-28T00:56:17.362Z,2.94
2024-01-28T00:58:55.151Z,2.95
2024-01-28T01:01:38.184Z,2.93
2024-01-28T01:04:07.979Z,2.90
2024-01-28T01:06:49.067Z,2.88
2024-01-28T01:09:19.904Z,2.86
2024-01-28T01:11:52.444Z,2.88
2024-01-28T01:14:21.953Z,2.88
2024-01-28T01:24:17.005Z,2.96
2024-01-28T01:26:51.104Z,2.96
2024-01-28T01:29:24.280Z,2.95
2024-01-28T01:32:13.079Z,2.94
2024-01-28T01:34:44.308Z,2.90
2024-01-28T01:37:13.603Z,2.88
2024-01-28T01:39:45.618Z,2.86
2024-01-28T01:42:14.906Z,2.86
2024-01-28T01:44:46.243Z,2.87
2024-01-28T01:47:16.345Z,2.88
2024-01-28T01:49:45.547Z,2.89
2024-01-28T01:52:17.394Z,2.87
2024-01-28T01:54:48.932Z,2.84
2024-01-28T01:57:23.345Z,2.82
2024-01-28T01:59:55.464Z,2.84
2024-01-28T02:02:23.452Z,2.82
2024-01-28T02:04:51.573Z,2.84
2024-01-28T02:07:19.044Z,2.83
2024-01-28T02:09:52.421Z,2.84
2024-01-28T02:12:23.177Z,2.85
2024-01-28T02:15:57.293Z,2.87
2024-01-28T02:18:27.240Z,2.88
2024-01-28T02:20:58.182Z,2.89
2024-01-28T02:23:28.172Z,2.88
2024-01-28T02:25:58.132Z,2.87
2024-01-28T02:28:25.088Z,2.89
2024-01-28T02:30:53.196Z,2.92
2024-01-28T02:33:21.389Z,2.91
2024-01-28T02:35:51.740Z,2.91
2024-01-28T02:38:22.541Z,2.92
2024-01-28T02:40:53.000Z,2.95
2024-01-28T02:43:26.919Z,2.97
2024-01-28T02:45:55.439Z,2.98
2024-01-28T02:48:27.903Z,2.95
2024-01-28T02:50:59.431Z,2.97
2024-01-28T02:53:31.637Z,2.97
2024-01-28T02:56:01.657Z,2.96
2024-01-28T02:58:40.217Z,2.93
2024-01-28T03:01:10.678Z,2.93
2024-01-28T03:03:41.209Z,2.94
2024-01-28T03:06:11.596Z,2.94
2024-01-28T03:08:45.397Z,2.93
2024-01-28T03:11:15.740Z,2.92
2024-01-28T03:13:47.704Z,2.91
2024-01-28T03:16:18.384Z,2.91
2024-01-28T03:18:55.450Z,2.91
2024-01-28T03:21:28.379Z,2.91
2024-01-28T03:23:59.785Z,2.95
2024-01-28T03:26:35.295Z,2.96
2024-01-28T03:29:06.068Z,2.98
2024-01-28T03:31:37.615Z,3.01
2024-01-28T03:34:08.080Z,3.00
2024-01-28T03:36:39.953Z,2.95
2024-01-28T03:39:09.769Z,2.93
2024-01-28T03:41:53.260Z,2.92
2024-01-28T03:44:24.511Z,2.91
2024-01-28T03:46:54.742Z,2.89
2024-01-28T03:49:22.954Z,2.90
2024-01-28T03:51:52.942Z,2.93
2024-01-28T03:54:56.810Z,2.96
2024-01-28T03:57:26.597Z,3.00
2024-01-28T03:59:57.126Z,3.02
2024-01-28T04:02:29.494Z,3.02
2024-01-28T04:05:00.470Z,3.03
2024-01-28T04:07:33.225Z,3.05
2024-01-28T04:10:02.917Z,3.04
2024-01-28T04:12:35.481Z,3.04
2024-01-28T04:15:04.754Z,3.05
2024-01-28T04:17:35.675Z,3.06
2024-01-28T04:20:06.565Z,3.06
2024-01-28T04:22:35.592Z,3.11
2024-01-28T04:25:03.070Z,3.12
2024-01-28T04:27:32.591Z,3.15
2024-01-28T04:30:10.589Z,3.14
2024-01-28T04:32:42.805Z,3.15
2024-01-28T04:38:35.731Z,3.18
2024-01-28T04:41:03.544Z,3.13
2024-01-28T04:43:40.798Z,3.13
2024-01-28T04:46:09.982Z,3.14
2024-01-28T04:48:47.104Z,3.12
2024-01-28T04:55:23.435Z,3.08
2024-01-28T04:58:03.245Z,3.08
2024-01-28T05:00:35.836Z,3.09
2024-01-28T05:03:09.628Z,3.09
2024-01-28T05:05:49.316Z,3.11
2024-01-28T05:08:19.387Z,3.09
2024-01-28T05:10:49.187Z,3.14
2024-01-28T05:13:40.691Z,3.20
2024-01-28T05:16:15.868Z,3.24
2024-01-28T05:19:04.305Z,3.26
2024-01-28T05:22:03.998Z,3.27
2024-01-28T05:24:36.852Z,3.32
2024-01-28T05:27:08.570Z,3.37
2024-01-28T05:29:38.489Z,3.41
2024-01-28T05:32:14.338Z,3.43
2024-01-28T05:34:42.897Z,3.44
2024-01-28T05:37:16.167Z,3.46
2024-01-28T05:39:44.760Z,3.47
2024-01-28T05:42:39.823Z,3.47
2024-01-28T05:45:09.527Z,3.49
2024-01-28T05:47:40.178Z,3.48
2024-01-28T05:50:10.313Z,3.48
2024-01-28T05:52:41.251Z,3.51
2024-01-28T05:55:09.872Z,3.55
2024-01-28T05:57:43.431Z,3.59
2024-01-28T06:00:24.178Z,3.61
2024-01-28T06:02:59.889Z,3.63
2024-01-28T06:05:34.121Z,3.66
2024-01-28T06:08:06.633Z,3.67
2024-01-28T06:10:37.543Z,3.66
2024-01-28T06:13:12.969Z,3.67
2024-01-28T06:15:42.670Z,3.67
2024-01-28T06:18:18.409Z,3.66
2024-01-28T06:20:47.642Z,3.65
2024-01-28T06:23:17.875Z,3.65
2024-01-28T06:25:47.504Z,3.65
2024-01-28T06:28:22.700Z,3.67
2024-01-28T06:31:01.267Z,3.67
2024-01-28T06:33:32.979Z,3.67
2024-01-28T06:36:02.340Z,3.67
2024-01-28T06:38:35.246Z,3.70
2024-01-28T06:41:05.036Z,3.69
2024-01-28T06:45:56.163Z,3.69
2024-01-28T06:48:32.288Z,3.68
2024-01-28T06:51:23.296Z,3.67
2024-01-28T06:53:58.336Z,3.65
2024-01-28T06:56:36.632Z,3.68
2024-01-28T07:02:44.093Z,3.71
2024-01-28T07:05:26.805Z,3.72
2024-01-28T07:08:12.478Z,3.68
2024-01-28T07:11:21.885Z,3.69
2024-01-28T07:14:51.053Z,3.69
2024-01-28T07:17:19.945Z,3.68
2024-01-28T07:20:18.410Z,3.68
2024-01-28T07:22:56.027Z,3.68
2024-01-28T07:25:29.268Z,3.68
2024-01-28T07:27:56.988Z,3.68
2024-01-28T07:30:25.357Z,3.69
2024-01-28T07:32:55.804Z,3.71
2024-01-28T07:35:23.528Z,3.70
2024-01-28T07:37:54.372Z,3.69
2024-01-28T07:40:22.613Z,3.69
2024-01-28T07:42:51.763Z,3.72
2024-01-28T07:45:21.447Z,3.76
2024-01-28T07:47:54.672Z,3.75
2024-01-28T07:50:25.869Z,3.74
2024-01-28T07:53:10.146Z,3.75
2024-01-28T07:55:45.057Z,3.72
2024-01-28T07:58:14.256Z,3.71
2024-01-28T08:00:42.096Z,3.68
2024-01-28T08:03:10.779Z,3.68
2024-01-28T08:05:42.062Z,3.70
2024-01-28T08:08:16.248Z,3.73
2024-01-28T08:10:47.837Z,3.73
2024-01-28T08:17:50.051Z,3.68
2024-01-28T08:20:19.674Z,3.65
2024-01-28T08:27:23.512Z,3.72
2024-01-28T08:30:48.201Z,3.70
2024-01-28T08:33:21.160Z,3.72
2024-01-28T08:35:53.288Z,3.72
2024-01-28T08:38:51.313Z,3.72
2024-01-28T08:41:23.324Z,3.73
2024-01-28T08:44:43.450Z,3.74
2024-01-28T08:47:23.233Z,3.80
2024-01-28T08:50:11.362Z,3.82
2024-01-28T08:53:10.728Z,3.84
2024-01-28T08:55:45.082Z,3.86
2024-01-28T08:59:29.747Z,3.89
2024-01-28T09:02:07.674Z,3.89
2024-01-28T09:04:41.959Z,3.92
2024-01-28T09:07:12.620Z,3.90
2024-01-28T09:09:43.075Z,3.90
2024-01-28T09:12:13.443Z,3.95
2024-01-28T09:14:45.084Z,3.97
2024-01-28T09:17:14.486Z,3.97
2024-01-28T09:20:35.790Z,4.00
2024-01-28T09:23:10.754Z,4.01
2024-01-28T09:25:38.079Z,4.01
2024-01-28T09:28:14.012Z,3.99
2024-01-28T09:30:47.431Z,4.01
2024-01-28T09:34:10.718Z,3.98
2024-01-28T09:36:43.539Z,3.97
2024-01-28T09:39:15.421Z,3.96
2024-01-28T09:42:14.936Z,3.97
2024-01-28T09:44:48.216Z,3.96
2024-01-28T09:47:26.505Z,3.98
2024-01-28T09:49:55.287Z,3.98
2024-01-28T09:52:24.508Z,3.96
2024-01-28T09:55:15.270Z,3.93
2024-01-28T09:57:44.417Z,3.89
2024-01-28T10:00:18.565Z,3.89
2024-01-28T10:02:47.600Z,3.88
2024-01-28T10:25:02.114Z,3.83
2024-01-28T10:27:38.500Z,3.86
2024-01-28T10:30:10.422Z,3.87
2024-01-28T10:38:31.402Z,3.94
2024-01-28T10:41:09.229Z,4.00
2024-01-28T10:43:39.996Z,4.06
2024-01-28T10:46:11.538Z,4.14
2024-01-28T10:48:39.646Z,4.20
2024-01-28T10:51:08.262Z,4.29
2024-01-28T10:53:36.358Z,4.34
2024-01-28T10:56:06.973Z,4.38
2024-01-28T10:58:36.939Z,4.43
2024-01-28T11:01:07.985Z,4.48
2024-01-28T11:04:39.614Z,4.53
2024-01-28T11:07:34.178Z,4.59
2024-01-28T11:16:20.613Z,4.69
2024-01-28T11:24:04.118Z,4.56
2024-01-28T11:26:43.380Z,4.49
2024-01-28T11:29:46.250Z,4.45
2024-01-28T11:32:13.565Z,4.40
2024-01-28T11:34:49.499Z,4.34
2024-01-28T11:43:05.591Z,4.13
2024-01-28T13:04:32.223Z,3.58
2024-01-28T13:21:00.035Z,3.65
2024-01-28T13:24:23.486Z,3.67
2024-01-28T13:45:30.356Z,3.48
2024-01-28T13:49:16.177Z,3.46
2024-01-28T14:02:30.974Z,3.56
2024-01-28T14:05:18.074Z,3.57
2024-01-28T14:07:53.516Z,3.61
2024-01-28T14:19:25.107Z,3.63
2024-01-28T14:21:59.434Z,3.63
2024-01-28T14:24:33.907Z,3.63
2024-01-28T14:27:10.315Z,3.63
2024-01-28T14:29:47.124Z,3.61
2024-01-28T14:32:19.594Z,3.58
2024-01-28T14:39:28.991Z,3.49
2024-01-28T15:11:50.207Z,3.28
2024-01-28T15:19:20.964Z,3.31
2024-01-28T15:22:20.877Z,3.32
2024-01-28T15:33:07.157Z,3.37
2024-01-28T15:36:19.756Z,3.38
2024-01-28T15:39:20.762Z,3.35
2024-01-28T15:41:59.054Z,3.37
2024-01-28T15:48:44.725Z,3.33
2024-01-28T15:52:02.791Z,3.35
2024-01-28T15:54:43.798Z,3.34
2024-01-28T15:58:10.494Z,3.32
2024-01-28T16:00:59.100Z,3.31
2024-01-28T16:03:31.627Z,3.31
2024-01-28T16:06:02.872Z,3.32
2024-01-28T16:09:01.078Z,3.30
2024-01-28T16:11:58.663Z,3.25
2024-01-28T16:15:53.062Z,3.25
2024-01-28T16:18:55.991Z,3.23
2024-01-28T16:21:47.047Z,3.21
2024-01-28T16:24:55.583Z,3.21
2024-01-28T16:35:52.633Z,3.26
2024-01-28T16:38:38.918Z,3.25
2024-01-28T16:41:15.866Z,3.26
2024-01-28T16:43:49.088Z,3.21
2024-01-28T16:46:19.133Z,3.22
2024-01-28T16:48:53.041Z,3.19
2024-01-28T16:51:20.653Z,3.16
2024-01-28T16:53:52.564Z,3.12
2024-01-28T16:56:27.067Z,3.09
2024-01-28T16:58:57.408Z,3.05
2024-01-28T17:01:31.258Z,3.06
2024-01-28T17:04:00.684Z,3.07
2024-01-28T17:06:29.339Z,3.09
2024-01-28T17:09:01.282Z,3.08
2024-01-28T17:11:29.535Z,3.02
2024-01-28T17:14:34.834Z,3.00
2024-01-28T17:17:15.637Z,3.03
2024-01-28T17:20:32.288Z,3.05
2024-01-28T17:25:53.093Z,3.14
2024-01-28T17:32:30.934Z,3.18
2024-01-28T17:35:32.573Z,3.18
2024-01-28T17:51:59.821Z,3.12
2024-01-28T17:58:37.021Z,3.08
2024-01-28T18:10:59.362Z,3.09
2024-01-28T18:13:51.612Z,3.06
2024-01-28T18:16:47.632Z,3.03
2024-01-28T18:19:30.064Z,3.03
2024-01-28T18:22:19.193Z,3.02
2024-01-28T18:25:08.857Z,3.02
2024-01-28T18:47:48.716Z,3.07
2024-01-28T18:50:18.542Z,3.04
2024-01-28T18:52:54.315Z,3.05
2024-01-28T18:56:12.022Z,3.11
2024-01-28T19:03:05.187Z,3.05
2024-01-28T19:08:51.457Z,3.07
2024-01-28T19:11:33.373Z,3.08
2024-01-28T19:14:38.304Z,3.07
2024-01-28T19:17:55.878Z,3.03
2024-01-28T19:24:33.347Z,3.06
2024-01-28T19:45:48.946Z,3.03
2024-01-28T19:51:51.504Z,3.02
2024-01-28T19:58:16.981Z,3.03
2024-01-28T20:00:54.143Z,3.01
2024-01-28T20:03:31.454Z,2.99
2024-01-28T20:06:22.976Z,3.02
2024-01-28T20:09:29.921Z,3.04
2024-01-28T20:12:01.904Z,3.03
2024-01-28T20:14:52.977Z,3.00
2024-01-28T20:17:28.873Z,2.95
2024-01-28T20:19:58.503Z,2.95
2024-01-28T20:22:35.771Z,2.92
2024-01-28T20:25:26.123Z,2.91
2024-01-28T20:28:02.909Z,2.89
2024-01-28T20:30:47.881Z,2.86
2024-01-28T20:33:16.413Z,2.89
2024-01-28T20:36:02.331Z,2.87
2024-01-28T20:38:47.267Z,2.89
2024-01-28T20:41:38.340Z,2.89
2024-01-28T20:44:25.268Z,2.86
2024-01-28T20:47:03.101Z,2.88
2024-01-28T20:49:35.190Z,2.89
2024-01-28T20:52:15.868Z,2.90
2024-01-28T20:55:08.385Z,2.89
2024-01-28T20:57:46.153Z,2.88
2024-01-28T21:00:18.810Z,2.86
2024-01-28T21:02:55.148Z,2.88
2024-01-28T21:06:03.815Z,2.88
2024-01-28T21:08:38.803Z,2.90
2024-01-28T21:11:12.901Z,2.90
2024-01-28T21:13:48.955Z,2.88
2024-01-28T21:16:43.761Z,2.85
2024-01-28T21:19:15.030Z,2.85
2024-01-28T21:21:51.489Z,2.86
2024-01-28T21:24:31.050Z,2.86
2024-01-28T21:27:08.248Z,2.86
2024-01-28T21:30:12.344Z,2.84
2024-01-28T21:33:02.788Z,2.85
2024-01-28T21:36:27.930Z,2.88
2024-01-28T21:39:07.013Z,2.89
2024-01-28T21:41:36.224Z,2.89
2024-01-28T21:44:09.688Z,2.88
2024-01-28T21:46:38.305Z,2.89
2024-01-28T21:49:08.348Z,2.90
2024-01-28T21:51:46.137Z,2.96
2024-01-28T21:54:18.750Z,3.01
2024-01-28T21:57:43.531Z,3.03
2024-01-28T22:00:15.605Z,3.04
2024-01-28T22:03:39.801Z,2.98
2024-01-28T22:06:50.376Z,2.93
2024-01-28T22:09:22.592Z,2.87
2024-01-28T22:11:53.719Z,2.87
2024-01-28T22:15:06.619Z,2.88
2024-01-28T22:17:37.895Z,2.87
2024-01-28T22:20:12.191Z,2.84
2024-01-28T22:22:41.128Z,2.83
2024-01-28T22:25:10.409Z,2.82
2024-01-28T22:27:47.009Z,2.81
2024-01-28T22:30:37.059Z,2.83
2024-01-28T22:33:06.736Z,2.84
2024-01-28T22:35:48.735Z,2.82
2024-01-28T22:38:20.787Z,2.79
2024-01-28T22:40:51.622Z,2.76
2024-01-28T22:43:20.950Z,2.73
2024-01-28T22:45:50.597Z,2.74
2024-01-28T22:48:23.936Z,2.74
2024-01-28T22:50:55.998Z,2.73
2024-01-28T22:53:26.192Z,2.73
2024-01-28T22:55:57.114Z,2.74
2024-01-28T22:58:26.764Z,2.75
2024-01-28T23:01:04.694Z,2.78
2024-01-28T23:03:35.825Z,2.80
2024-01-28T23:06:08.222Z,2.81
2024-01-28T23:08:37.989Z,2.81
2024-01-28T23:11:10.242Z,2.77
2024-01-28T23:13:42.010Z,2.73
2024-01-28T23:16:15.461Z,2.70
2024-01-28T23:18:52.158Z,2.67
2024-01-28T23:21:23.977Z,2.66
2024-01-28T23:23:55.956Z,2.65
2024-01-28T23:30:22.144Z,2.28
2024-01-28T23:32:54.920Z,2.67
2024-01-28T23:35:26.874Z,2.67
2024-01-28T23:37:54.152Z,2.66
2024-01-28T23:40:28.885Z,2.67
2024-01-28T23:43:01.122Z,2.65
2024-01-28T23:45:32.465Z,2.63
2024-01-28T23:48:06.757Z,2.64
2024-01-28T23:50:53.876Z,2.65
2024-01-28T23:53:49.547Z,2.65
2024-01-28T23:56:23.699Z,2.59
2024-01-28T23:58:56.589Z,2.59
